Costa Romantica — IBCR — position and weather

sailwx.info

Track history (hours):
 
Tides and Currents Weather Stations Pressure Air Temp Water Temp Dewpoint Dewpoint Depression Visibility Wind Speed Wind Dir Waves Ship Positions

Costa Romantica

Last reported at 2017-Apr-10 23:51 UTC. Time now 2017-May-25 10:36 UTC.
Position N 31°05' E 122°32'.
Warning: this ship's position is 44 days out of date.

Length 221 m; draft 7.8 m.

Type: Ship. MMSI: 247817000.

Date/timePositionNaut miles runAvg speedWind from/ knotsBaromVisibWave heightAir tempDewpointWater temp
2017-Apr-10 23:51N 31°05' E 122°32'3 9.9
2017-Apr-10 23:30N 31°05' E 122°28'4 7.1
2017-Apr-10 23:00N 31°06' E 122°24'612.0
2017-Apr-10 22:30N 31°07' E 122°17'713.5
2017-Apr-10 22:00N 31°11' E 122°10'713.9
2017-Apr-10 21:30N 31°14' E 122°03'714.7
2017-Apr-10 21:01N 31°16' E 121°55'714.7
2017-Apr-10 20:30N 31°18' E 121°47'612.2
2017-Apr-10 20:00N 31°20' E 121°40'612.1
2017-Apr-10 19:30N 31°23' E 121°34'4 7.8
2017-Apr-10 19:00N 31°22' E 121°30'4 7.8
2017-Apr-10 18:30N 31°20' E 121°33'3 6.9
2017-Apr-10 18:00N 31°16' E 121°34'3 5.9
2017-Apr-10 17:30N 31°15' E 121°31'1 1.4
2017-Apr-10 16:58N 31°15' E 121°30'0 0.0
2017-Apr-10 16:28N 31°15' E 121°30'0 0.0
2017-Apr-10 15:58N 31°15' E 121°30'0 0.0
2017-Apr-10 15:28N 31°15' E 121°30'0 0.0
2017-Apr-10 14:58N 31°15' E 121°30'0 0.0
2017-Apr-10 13:55N 31°15' E 121°30'0 0.0
2017-Apr-10 13:13N 31°15' E 121°30'0 0.0
2017-Apr-10 12:55N 31°15' E 121°30'0 0.0
2017-Apr-10 12:19N 31°15' E 121°30'0 0.0
2017-Apr-10 11:55N 31°15' E 121°30'0 0.0
2017-Apr-10 11:19N 31°15' E 121°30'0 0.0
2017-Apr-10 10:55N 31°15' E 121°30'0 0.0
2017-Apr-10 10:25N 31°15' E 121°30'0 0.0
2017-Apr-10 09:37N 31°15' E 121°30'0 0.0
2017-Apr-10 09:28N 31°15' E 121°30'0 0.0
2017-Apr-10 08:49N 31°15' E 121°30'0 0.0
2017-Apr-10 08:25N 31°15' E 121°30'0 0.0
2017-Apr-10 07:55N 31°15' E 121°30'0 0.0
2017-Apr-10 07:28N 31°15' E 121°30'0 0.0
2017-Apr-10 06:43N 31°15' E 121°30'0 0.0
2017-Apr-10 06:28N 31°15' E 121°30'0 0.0
2017-Apr-10 05:58N 31°15' E 121°30'0 0.0
2017-Apr-10 05:10N 31°15' E 121°30'0 0.0
2017-Apr-10 04:58N 31°15' E 121°30'0 0.0
2017-Apr-10 04:28N 31°15' E 121°30'0 0.0
2017-Apr-10 03:58N 31°15' E 121°30'0 0.0
2017-Apr-10 03:28N 31°15' E 121°30'0 0.0
2017-Apr-10 02:58N 31°15' E 121°30'0 0.0
2017-Apr-10 02:28N 31°15' E 121°30'0 0.0
2017-Apr-10 01:55N 31°15' E 121°30'0 0.0
2017-Apr-10 01:25N 31°15' E 121°30'0 0.0
2017-Apr-10 00:58N 31°15' E 121°30'0 0.0
2017-Apr-10 00:19N 31°15' E 121°30'0 0.0
2017-Apr-09 23:55N 31°15' E 121°30'0 0.0
2017-Apr-09 23:25N 31°15' E 121°30'0 0.0
2017-Apr-09 22:49N 31°15' E 121°30'0 0.0
2017-Apr-09 22:25N 31°15' E 121°30'0 0.0
2017-Apr-09 21:55N 31°15' E 121°30'0 0.0
2017-Apr-09 21:25N 31°15' E 121°30'0 0.0
2017-Apr-09 20:55N 31°15' E 121°30'0 0.0
2017-Apr-09 20:25N 31°15' E 121°30'0 0.0
2017-Apr-09 19:58N 31°15' E 121°30'0 0.0
2017-Apr-09 19:30N 31°15' E 121°30'0 0.1
2017-Apr-09 19:00N 31°15' E 121°30'1 2.3
2017-Apr-09 18:31N 31°15' E 121°31'2 4.7
2017-Apr-09 18:00N 31°16' E 121°33'3 6.8
2017-Apr-09 17:30N 31°20' E 121°33'3 6.7
2017-Apr-09 17:00N 31°21' E 121°30'3 5.5
2017-Apr-09 16:30N 31°24' E 121°32'3 6.5
2017-Apr-09 16:00N 31°23' E 121°36'4 8.7
2017-Apr-09 15:30N 31°21' E 121°40'5 9.7
2017-Apr-09 15:00N 31°19' E 121°45'10 9.8
2017-Apr-09 14:00N 31°15' E 121°56'5 9.7
2017-Apr-09 13:30N 31°15' E 122°02'510.8
2017-Apr-09 13:00N 31°13' E 122°07'511.0
2017-Apr-09 12:30N 31°10' E 122°13'5 9.6
2017-Apr-09 12:00N 31°07' E 122°17'4 8.6
2017-Apr-09 11:30N 31°06' E 122°22'510.4
2017-Apr-09 11:00N 31°07' E 122°28'69015.2
2017-Apr-07 13:41N 22°18' E 114°12'1 8.3
2017-Apr-07 13:30N 22°17' E 114°10'1 1.0
2017-Apr-07 13:00N 22°18' E 114°10'0 0.0
2017-Apr-07 12:30N 22°18' E 114°10'0 0.0
2017-Apr-07 12:00N 22°18' E 114°10'0 0.0
2017-Apr-07 11:27N 22°18' E 114°10'0 0.0
2017-Apr-07 11:00N 22°18' E 114°10'0 0.0
2017-Apr-07 10:30N 22°18' E 114°10'0 0.0
2017-Apr-07 10:00N 22°18' E 114°10'0 0.0
2017-Apr-07 09:30N 22°18' E 114°10'0 0.0
2017-Apr-07 09:00N 22°18' E 114°10'0 0.0
2017-Apr-07 08:30N 22°18' E 114°10'0 0.0
2017-Apr-07 08:00N 22°18' E 114°10'0 0.0
2017-Apr-07 07:30N 22°18' E 114°10'0 0.0
2017-Apr-07 07:00N 22°18' E 114°10'0 0.0
2017-Apr-07 06:30N 22°18' E 114°10'0 0.0
2017-Apr-07 06:00N 22°18' E 114°10'0 0.0
2017-Apr-07 05:30N 22°18' E 114°10'0 0.0
2017-Apr-07 05:00N 22°18' E 114°10'0 0.0
2017-Apr-07 04:30N 22°18' E 114°10'0 0.0
2017-Apr-07 04:00N 22°18' E 114°10'0 0.0
2017-Apr-07 03:30N 22°18' E 114°10'0 0.0
2017-Apr-07 03:00N 22°18' E 114°10'0 0.0
2017-Apr-07 02:30N 22°18' E 114°10'0 0.0
2017-Apr-07 02:00N 22°18' E 114°10'0 0.0
2017-Apr-07 01:30N 22°18' E 114°10'0 0.0
2017-Apr-07 01:00N 22°18' E 114°10'0 0.0
2017-Apr-07 00:30N 22°18' E 114°10'0 0.0
2017-Apr-07 00:00N 22°18' E 114°10'50014.6
2017-Apr-05 13:53N 16°09' E 108°13'2 4.4
2017-Apr-05 13:28N 16°07' E 108°13'0 0.1
2017-Apr-05 12:58N 16°07' E 108°13'0 0.0
2017-Apr-05 12:28N 16°07' E 108°13'0 0.0
2017-Apr-05 11:58N 16°07' E 108°13'0 0.0
2017-Apr-05 11:28N 16°07' E 108°13'0 0.0
2017-Apr-05 10:58N 16°07' E 108°13'0 0.0
2017-Apr-05 10:28N 16°07' E 108°13'0 0.0
2017-Apr-05 09:52N 16°07' E 108°13'0 0.0
2017-Apr-05 09:22N 16°07' E 108°13'0 0.0
2017-Apr-05 08:58N 16°07' E 108°13'0 0.0
2017-Apr-05 08:28N 16°07' E 108°13'0 0.0
2017-Apr-05 07:58N 16°07' E 108°13'0 0.0
2017-Apr-05 07:28N 16°07' E 108°13'0 0.0
2017-Apr-05 06:58N 16°07' E 108°13'0 0.0
2017-Apr-05 06:28N 16°07' E 108°13'0 0.0
2017-Apr-05 05:52N 16°07' E 108°13'0 0.0
2017-Apr-05 05:28N 16°07' E 108°13'0 0.0
2017-Apr-05 04:58N 16°07' E 108°13'0 0.0
2017-Apr-05 04:28N 16°07' E 108°13'0 0.0
2017-Apr-05 03:58N 16°07' E 108°13'0 0.0
2017-Apr-05 03:31N 16°07' E 108°13'0 0.0
2017-Apr-05 03:01N 16°07' E 108°13'2 4.6
2017-Apr-05 02:31N 16°09' E 108°12'1011.2
2017-Apr-05 01:39N 16°12' E 108°22'510.9
2017-Apr-05 01:14N 16°12' E 108°27'310.6
2017-Apr-05 00:58N 16°11' E 108°30'  
2017-Apr-02 11:05N 01°15' E 104°04'217.7
2017-Apr-02 11:00N 01°15' E 104°02'816.1
2017-Apr-02 10:30N 01°13' E 103°55'4 8.0
2017-Apr-02 10:00N 01°16' E 103°52'0 0.5
2017-Apr-02 09:28N 01°16' E 103°52'0 0.0
2017-Apr-02 08:58N 01°16' E 103°52'0 0.0
2017-Apr-02 08:28N 01°16' E 103°52'0 0.0
2017-Apr-02 07:58N 01°16' E 103°52'0 0.0
2017-Apr-02 07:28N 01°16' E 103°52'0 0.0
2017-Apr-02 06:58N 01°16' E 103°52'0 0.0
2017-Apr-02 06:28N 01°16' E 103°52'0 0.0
2017-Apr-02 05:58N 01°16' E 103°52'0 0.0
2017-Apr-02 05:28N 01°16' E 103°52'0 0.0
2017-Apr-02 04:58N 01°16' E 103°52'0 0.0
2017-Apr-02 04:25N 01°16' E 103°52'0 0.0
2017-Apr-02 03:58N 01°16' E 103°52'0 0.0
2017-Apr-02 03:28N 01°16' E 103°52'0 0.0
2017-Apr-02 02:58N 01°16' E 103°52'0 0.0
2017-Apr-02 02:28N 01°16' E 103°52'0 0.0
2017-Apr-02 01:58N 01°16' E 103°52'0 0.0
2017-Apr-02 01:25N 01°16' E 103°52'0 0.0
2017-Apr-02 00:58N 01°16' E 103°52'0 0.0
2017-Apr-02 00:22N 01°16' E 103°52'0 0.0
2017-Apr-01 23:58N 01°16' E 103°52'0 0.0
2017-Apr-01 23:28N 01°16' E 103°52'0 0.0
2017-Apr-01 23:00N 01°16' E 103°52'2 4.2
2017-Apr-01 22:30N 01°14' E 103°53'510.4
2017-Apr-01 22:00N 01°10' E 103°49'816.2
2017-Apr-01 21:30N 01°05' E 103°43'712.8
2017-Apr-01 20:59N 01°04' E 103°36'816.4
2017-Apr-01 20:30N 01°08' E 103°30'816.9
2017-Apr-01 20:00N 01°13' E 103°23'3016.1
2017-Apr-01 18:09N 01°30' E 102°58'1016.1
2017-Apr-01 17:30N 01°36' E 102°49'1916.4
2017-Apr-01 16:22N 01°44' E 102°33'616.8
2017-Apr-01 16:00N 01°46' E 102°27'916.8
2017-Apr-01 15:28N 01°51' E 102°19'  
Track history (hours):
 
Tides and Currents Weather Stations Pressure Air Temp Water Temp Dewpoint Dewpoint Depression Visibility Wind Speed Wind Dir Waves Ship Positions

Costa Romantica

Last reported at 2017-Apr-10 23:51 UTC. Time now 2017-May-25 10:36 UTC.
Position N 31°05' E 122°32'.
Warning: this ship's position is 44 days out of date.

Length 221 m; draft 7.8 m.

Type: Ship. MMSI: 247817000.

Date/timePositionNaut miles runAvg speedWind from/ knotsBaromVisibWave heightAir tempDewpointWater temp
2017-Apr-10 23:51N 31°05' E 122°32'3 9.9
2017-Apr-10 23:30N 31°05' E 122°28'4 7.1
2017-Apr-10 23:00N 31°06' E 122°24'612.0
2017-Apr-10 22:30N 31°07' E 122°17'713.5
2017-Apr-10 22:00N 31°11' E 122°10'713.9
2017-Apr-10 21:30N 31°14' E 122°03'714.7
2017-Apr-10 21:01N 31°16' E 121°55'714.7
2017-Apr-10 20:30N 31°18' E 121°47'612.2
2017-Apr-10 20:00N 31°20' E 121°40'612.1
2017-Apr-10 19:30N 31°23' E 121°34'4 7.8
2017-Apr-10 19:00N 31°22' E 121°30'4 7.8
2017-Apr-10 18:30N 31°20' E 121°33'3 6.9
2017-Apr-10 18:00N 31°16' E 121°34'3 5.9
2017-Apr-10 17:30N 31°15' E 121°31'1 1.4
2017-Apr-10 16:58N 31°15' E 121°30'0 0.0
2017-Apr-10 16:28N 31°15' E 121°30'0 0.0
2017-Apr-10 15:58N 31°15' E 121°30'0 0.0
2017-Apr-10 15:28N 31°15' E 121°30'0 0.0
2017-Apr-10 14:58N 31°15' E 121°30'0 0.0
2017-Apr-10 13:55N 31°15' E 121°30'0 0.0
2017-Apr-10 13:13N 31°15' E 121°30'0 0.0
2017-Apr-10 12:55N 31°15' E 121°30'0 0.0
2017-Apr-10 12:19N 31°15' E 121°30'0 0.0
2017-Apr-10 11:55N 31°15' E 121°30'0 0.0
2017-Apr-10 11:19N 31°15' E 121°30'0 0.0
2017-Apr-10 10:55N 31°15' E 121°30'0 0.0
2017-Apr-10 10:25N 31°15' E 121°30'0 0.0
2017-Apr-10 09:37N 31°15' E 121°30'0 0.0
2017-Apr-10 09:28N 31°15' E 121°30'0 0.0
2017-Apr-10 08:49N 31°15' E 121°30'0 0.0
2017-Apr-10 08:25N 31°15' E 121°30'0 0.0
2017-Apr-10 07:55N 31°15' E 121°30'0 0.0
2017-Apr-10 07:28N 31°15' E 121°30'0 0.0
2017-Apr-10 06:43N 31°15' E 121°30'0 0.0
2017-Apr-10 06:28N 31°15' E 121°30'0 0.0
2017-Apr-10 05:58N 31°15' E 121°30'0 0.0
2017-Apr-10 05:10N 31°15' E 121°30'0 0.0
2017-Apr-10 04:58N 31°15' E 121°30'0 0.0
2017-Apr-10 04:28N 31°15' E 121°30'0 0.0
2017-Apr-10 03:58N 31°15' E 121°30'0 0.0
2017-Apr-10 03:28N 31°15' E 121°30'0 0.0
2017-Apr-10 02:58N 31°15' E 121°30'0 0.0
2017-Apr-10 02:28N 31°15' E 121°30'0 0.0
2017-Apr-10 01:55N 31°15' E 121°30'0 0.0
2017-Apr-10 01:25N 31°15' E 121°30'0 0.0
2017-Apr-10 00:58N 31°15' E 121°30'0 0.0
2017-Apr-10 00:19N 31°15' E 121°30'0 0.0
2017-Apr-09 23:55N 31°15' E 121°30'0 0.0
2017-Apr-09 23:25N 31°15' E 121°30'0 0.0
2017-Apr-09 22:49N 31°15' E 121°30'0 0.0
2017-Apr-09 22:25N 31°15' E 121°30'0 0.0
2017-Apr-09 21:55N 31°15' E 121°30'0 0.0
2017-Apr-09 21:25N 31°15' E 121°30'0 0.0
2017-Apr-09 20:55N 31°15' E 121°30'0 0.0
2017-Apr-09 20:25N 31°15' E 121°30'0 0.0
2017-Apr-09 19:58N 31°15' E 121°30'0 0.0
2017-Apr-09 19:30N 31°15' E 121°30'0 0.1
2017-Apr-09 19:00N 31°15' E 121°30'1 2.3
2017-Apr-09 18:31N 31°15' E 121°31'2 4.7
2017-Apr-09 18:00N 31°16' E 121°33'3 6.8
2017-Apr-09 17:30N 31°20' E 121°33'3 6.7
2017-Apr-09 17:00N 31°21' E 121°30'3 5.5
2017-Apr-09 16:30N 31°24' E 121°32'3 6.5
2017-Apr-09 16:00N 31°23' E 121°36'4 8.7
2017-Apr-09 15:30N 31°21' E 121°40'5 9.7
2017-Apr-09 15:00N 31°19' E 121°45'10 9.8
2017-Apr-09 14:00N 31°15' E 121°56'5 9.7
2017-Apr-09 13:30N 31°15' E 122°02'510.8
2017-Apr-09 13:00N 31°13' E 122°07'511.0
2017-Apr-09 12:30N 31°10' E 122°13'5 9.6
2017-Apr-09 12:00N 31°07' E 122°17'4 8.6
2017-Apr-09 11:30N 31°06' E 122°22'510.4
2017-Apr-09 11:00N 31°07' E 122°28'69015.2
2017-Apr-07 13:41N 22°18' E 114°12'1 8.3
2017-Apr-07 13:30N 22°17' E 114°10'1 1.0
2017-Apr-07 13:00N 22°18' E 114°10'0 0.0
2017-Apr-07 12:30N 22°18' E 114°10'0 0.0
2017-Apr-07 12:00N 22°18' E 114°10'0 0.0
2017-Apr-07 11:27N 22°18' E 114°10'0 0.0
2017-Apr-07 11:00N 22°18' E 114°10'0 0.0
2017-Apr-07 10:30N 22°18' E 114°10'0 0.0
2017-Apr-07 10:00N 22°18' E 114°10'0 0.0
2017-Apr-07 09:30N 22°18' E 114°10'0 0.0
2017-Apr-07 09:00N 22°18' E 114°10'0 0.0
2017-Apr-07 08:30N 22°18' E 114°10'0 0.0
2017-Apr-07 08:00N 22°18' E 114°10'0 0.0
2017-Apr-07 07:30N 22°18' E 114°10'0 0.0
2017-Apr-07 07:00N 22°18' E 114°10'0 0.0
2017-Apr-07 06:30N 22°18' E 114°10'0 0.0
2017-Apr-07 06:00N 22°18' E 114°10'0 0.0
2017-Apr-07 05:30N 22°18' E 114°10'0 0.0
2017-Apr-07 05:00N 22°18' E 114°10'0 0.0
2017-Apr-07 04:30N 22°18' E 114°10'0 0.0
2017-Apr-07 04:00N 22°18' E 114°10'0 0.0
2017-Apr-07 03:30N 22°18' E 114°10'0 0.0
2017-Apr-07 03:00N 22°18' E 114°10'0 0.0
2017-Apr-07 02:30N 22°18' E 114°10'0 0.0
2017-Apr-07 02:00N 22°18' E 114°10'0 0.0
2017-Apr-07 01:30N 22°18' E 114°10'0 0.0
2017-Apr-07 01:00N 22°18' E 114°10'0 0.0
2017-Apr-07 00:30N 22°18' E 114°10'0 0.0
2017-Apr-07 00:00N 22°18' E 114°10'50014.6
2017-Apr-05 13:53N 16°09' E 108°13'2 4.4
2017-Apr-05 13:28N 16°07' E 108°13'0 0.1
2017-Apr-05 12:58N 16°07' E 108°13'0 0.0
2017-Apr-05 12:28N 16°07' E 108°13'0 0.0
2017-Apr-05 11:58N 16°07' E 108°13'0 0.0
2017-Apr-05 11:28N 16°07' E 108°13'0 0.0
2017-Apr-05 10:58N 16°07' E 108°13'0 0.0
2017-Apr-05 10:28N 16°07' E 108°13'0 0.0
2017-Apr-05 09:52N 16°07' E 108°13'0 0.0
2017-Apr-05 09:22N 16°07' E 108°13'0 0.0
2017-Apr-05 08:58N 16°07' E 108°13'0 0.0
2017-Apr-05 08:28N 16°07' E 108°13'0 0.0
2017-Apr-05 07:58N 16°07' E 108°13'0 0.0
2017-Apr-05 07:28N 16°07' E 108°13'0 0.0
2017-Apr-05 06:58N 16°07' E 108°13'0 0.0
2017-Apr-05 06:28N 16°07' E 108°13'0 0.0
2017-Apr-05 05:52N 16°07' E 108°13'0 0.0
2017-Apr-05 05:28N 16°07' E 108°13'0 0.0
2017-Apr-05 04:58N 16°07' E 108°13'0 0.0
2017-Apr-05 04:28N 16°07' E 108°13'0 0.0
2017-Apr-05 03:58N 16°07' E 108°13'0 0.0
2017-Apr-05 03:31N 16°07' E 108°13'0 0.0
2017-Apr-05 03:01N 16°07' E 108°13'2 4.6
2017-Apr-05 02:31N 16°09' E 108°12'1011.2
2017-Apr-05 01:39N 16°12' E 108°22'510.9
2017-Apr-05 01:14N 16°12' E 108°27'310.6
2017-Apr-05 00:58N 16°11' E 108°30'  
2017-Apr-02 11:05N 01°15' E 104°04'217.7
2017-Apr-02 11:00N 01°15' E 104°02'816.1
2017-Apr-02 10:30N 01°13' E 103°55'4 8.0
2017-Apr-02 10:00N 01°16' E 103°52'0 0.5
2017-Apr-02 09:28N 01°16' E 103°52'0 0.0
2017-Apr-02 08:58N 01°16' E 103°52'0 0.0
2017-Apr-02 08:28N 01°16' E 103°52'0 0.0
2017-Apr-02 07:58N 01°16' E 103°52'0 0.0
2017-Apr-02 07:28N 01°16' E 103°52'0 0.0
2017-Apr-02 06:58N 01°16' E 103°52'0 0.0
2017-Apr-02 06:28N 01°16' E 103°52'0 0.0
2017-Apr-02 05:58N 01°16' E 103°52'0 0.0
2017-Apr-02 05:28N 01°16' E 103°52'0 0.0
2017-Apr-02 04:58N 01°16' E 103°52'0 0.0
2017-Apr-02 04:25N 01°16' E 103°52'0 0.0
2017-Apr-02 03:58N 01°16' E 103°52'0 0.0
2017-Apr-02 03:28N 01°16' E 103°52'0 0.0
2017-Apr-02 02:58N 01°16' E 103°52'0 0.0
2017-Apr-02 02:28N 01°16' E 103°52'0 0.0
2017-Apr-02 01:58N 01°16' E 103°52'0 0.0
2017-Apr-02 01:25N 01°16' E 103°52'0 0.0
2017-Apr-02 00:58N 01°16' E 103°52'0 0.0
2017-Apr-02 00:22N 01°16' E 103°52'0 0.0
2017-Apr-01 23:58N 01°16' E 103°52'0 0.0
2017-Apr-01 23:28N 01°16' E 103°52'0 0.0
2017-Apr-01 23:00N 01°16' E 103°52'2 4.2
2017-Apr-01 22:30N 01°14' E 103°53'510.4
2017-Apr-01 22:00N 01°10' E 103°49'816.2
2017-Apr-01 21:30N 01°05' E 103°43'712.8
2017-Apr-01 20:59N 01°04' E 103°36'816.4
2017-Apr-01 20:30N 01°08' E 103°30'816.9
2017-Apr-01 20:00N 01°13' E 103°23'3016.1
2017-Apr-01 18:09N 01°30' E 102°58'1016.1
2017-Apr-01 17:30N 01°36' E 102°49'1916.4
2017-Apr-01 16:22N 01°44' E 102°33'616.8
2017-Apr-01 16:00N 01°46' E 102°27'916.8
2017-Apr-01 15:28N 01°51' E 102°19'  

Dump ship's entire track history